createdAt,value
2023-06-17T00:01:16.152Z,77.07
2023-06-17T00:03:44.493Z,77.12
2023-06-17T00:06:11.908Z,76.60
2023-06-17T00:08:39.043Z,77.11
2023-06-17T00:11:06.346Z,76.99
2023-06-17T00:13:33.890Z,77.70
2023-06-17T00:16:01.928Z,78.25
2023-06-17T00:18:29.926Z,78.13
2023-06-17T00:20:59.185Z,78.62
2023-06-17T00:23:26.767Z,78.64
2023-06-17T00:25:53.929Z,77.79
2023-06-17T00:28:21.101Z,77.46
2023-06-17T00:30:48.911Z,76.73
2023-06-17T00:33:16.720Z,77.22
2023-06-17T00:35:45.245Z,77.18
2023-06-17T00:38:12.552Z,77.10
2023-06-17T00:40:39.654Z,77.16
2023-06-17T00:43:06.761Z,78.18
2023-06-17T00:45:40.505Z,78.79
2023-06-17T00:48:10.023Z,80.02
2023-06-17T00:50:38.176Z,79.34
2023-06-17T00:53:06.654Z,78.54
2023-06-17T00:55:35.050Z,77.72
2023-06-17T00:58:02.598Z,76.24
2023-06-17T01:00:29.636Z,75.08
2023-06-17T01:02:57.897Z,74.24
2023-06-17T01:05:26.375Z,73.47
2023-06-17T01:07:59.833Z,72.45
2023-06-17T01:10:39.884Z,72.68
2023-06-17T01:13:07.704Z,74.39
2023-06-17T01:15:38.034Z,75.16
2023-06-17T01:18:08.355Z,75.88
2023-06-17T01:20:37.392Z,77.88
2023-06-17T01:23:06.733Z,77.37
2023-06-17T01:25:35.801Z,77.88
2023-06-17T01:28:21.269Z,76.83
2023-06-17T01:30:49.383Z,76.68
2023-06-17T01:33:17.152Z,74.69
2023-06-17T01:35:56.086Z,74.82
2023-06-17T01:38:44.718Z,75.42
2023-06-17T01:41:18.377Z,75.50
2023-06-17T01:43:46.624Z,76.14
2023-06-17T01:46:14.602Z,75.99
2023-06-17T01:48:42.694Z,77.63
2023-06-17T01:51:10.043Z,77.40
2023-06-17T01:53:37.033Z,76.86
2023-06-17T01:56:04.239Z,76.46
2023-06-17T01:58:31.229Z,77.02
2023-06-17T02:00:58.932Z,76.14
2023-06-17T02:03:26.020Z,75.64
2023-06-17T02:05:53.144Z,75.20
2023-06-17T02:08:20.291Z,75.51
2023-06-17T02:10:47.284Z,78.31
2023-06-17T02:13:14.698Z,80.18
2023-06-17T02:15:43.977Z,80.51
2023-06-17T02:18:13.748Z,81.41
2023-06-17T02:20:42.539Z,81.74
2023-06-17T02:23:09.577Z,80.88
2023-06-17T02:25:40.775Z,79.98
2023-06-17T02:28:08.159Z,79.37
2023-06-17T02:30:35.590Z,78.60
2023-06-17T02:33:02.748Z,77.78
2023-06-17T02:35:30.265Z,77.61
2023-06-17T02:37:58.357Z,77.29
2023-06-17T02:40:25.397Z,78.70
2023-06-17T02:42:53.242Z,78.56
2023-06-17T02:45:20.391Z,78.76
2023-06-17T02:47:48.609Z,78.72
2023-06-17T02:50:15.989Z,79.33
2023-06-17T02:52:43.036Z,79.08
2023-06-17T02:55:10.928Z,79.07
2023-06-17T02:57:38.351Z,79.26
2023-06-17T03:00:07.489Z,83.01
2023-06-17T03:02:34.552Z,82.34
2023-06-17T03:05:01.709Z,82.09
2023-06-17T03:07:37.544Z,81.38
2023-06-17T03:10:04.911Z,80.78
2023-06-17T03:12:37.723Z,79.78
2023-06-17T03:15:05.869Z,78.73
2023-06-17T03:17:33.028Z,79.35
2023-06-17T03:20:01.357Z,78.64
2023-06-17T03:22:30.903Z,78.14
2023-06-17T03:24:57.925Z,77.71
2023-06-17T03:27:25.274Z,77.37
2023-06-17T03:29:52.758Z,77.66
2023-06-17T03:32:19.725Z,77.24
2023-06-17T03:34:47.501Z,78.21
2023-06-17T03:37:15.521Z,78.33
2023-06-17T03:39:43.812Z,77.63
2023-06-17T03:42:16.053Z,77.66
2023-06-17T03:44:43.266Z,77.95
2023-06-17T03:47:10.930Z,78.58
2023-06-17T03:49:38.859Z,78.60
2023-06-17T03:52:06.889Z,78.68
2023-06-17T03:54:33.994Z,78.27
2023-06-17T03:57:01.243Z,77.36
2023-06-17T03:59:29.541Z,77.45
2023-06-17T04:01:56.717Z,78.25
2023-06-17T04:04:23.962Z,79.19
2023-06-17T04:06:51.652Z,81.07
2023-06-17T04:09:20.117Z,83.29
2023-06-17T04:11:50.952Z,84.18
2023-06-17T04:14:18.114Z,83.96
2023-06-17T04:16:50.454Z,83.34
2023-06-17T04:19:18.875Z,84.29
2023-06-17T04:21:46.598Z,84.27
2023-06-17T04:24:13.844Z,83.33
2023-06-17T04:26:44.315Z,81.71
2023-06-17T04:29:12.027Z,80.93
2023-06-17T04:31:41.650Z,80.45
2023-06-17T04:34:13.808Z,80.23
2023-06-17T04:36:41.057Z,79.52
2023-06-17T04:39:11.659Z,77.76
2023-06-17T04:41:39.293Z,75.70
2023-06-17T04:44:06.469Z,75.49
2023-06-17T04:46:34.799Z,75.66
2023-06-17T04:49:03.800Z,75.73
2023-06-17T04:51:31.022Z,74.50
2023-06-17T04:53:58.077Z,73.79
2023-06-17T04:56:28.060Z,74.56
2023-06-17T04:58:55.313Z,74.74
2023-06-17T05:01:23.434Z,73.82
2023-06-17T05:03:51.799Z,73.90
2023-06-17T05:06:19.975Z,75.32
2023-06-17T05:08:49.600Z,76.20
2023-06-17T05:11:18.759Z,75.44
2023-06-17T05:13:46.677Z,74.46
2023-06-17T05:16:13.701Z,76.06
2023-06-17T05:18:42.270Z,77.30
2023-06-17T05:21:09.382Z,78.94
2023-06-17T05:23:37.055Z,80.84
2023-06-17T05:26:05.496Z,80.65
2023-06-17T05:28:33.066Z,81.60
2023-06-17T05:31:00.297Z,80.35
2023-06-17T05:33:27.353Z,79.71
2023-06-17T05:35:55.694Z,80.18
2023-06-17T05:38:22.727Z,79.33
2023-06-17T05:40:49.929Z,79.23
2023-06-17T05:43:16.942Z,78.45
2023-06-17T05:45:44.152Z,78.45
2023-06-17T05:48:14.638Z,78.30
2023-06-17T05:50:41.663Z,78.51
2023-06-17T05:53:08.880Z,78.49
2023-06-17T05:55:35.948Z,79.67
2023-06-17T05:58:03.458Z,79.93
2023-06-17T06:00:34.456Z,81.07
2023-06-17T06:03:01.622Z,82.95
2023-06-17T06:05:28.754Z,83.78
2023-06-17T06:07:55.977Z,83.88
2023-06-17T06:10:23.388Z,83.47
2023-06-17T06:12:55.992Z,82.23
2023-06-17T06:15:24.752Z,82.22
2023-06-17T06:17:51.831Z,81.29
2023-06-17T06:20:19.632Z,80.34
2023-06-17T06:22:47.068Z,84.06
2023-06-17T06:25:14.102Z,85.95
2023-06-17T06:27:41.142Z,87.71
2023-06-17T06:30:09.557Z,90.82
2023-06-17T06:32:40.553Z,89.30
2023-06-17T06:35:07.918Z,88.93
2023-06-17T06:37:35.240Z,88.64
2023-06-17T06:40:02.705Z,88.57
2023-06-17T06:42:32.789Z,87.80
2023-06-17T06:45:16.814Z,88.56
2023-06-17T06:47:45.541Z,88.34
2023-06-17T06:50:12.944Z,87.40
2023-06-17T06:52:40.687Z,86.43
2023-06-17T06:55:08.374Z,87.40
2023-06-17T06:57:37.172Z,88.76
2023-06-17T07:00:10.204Z,89.15
2023-06-17T07:02:39.238Z,89.27
2023-06-17T07:05:07.077Z,87.77
2023-06-17T07:07:42.806Z,87.76
2023-06-17T07:10:10.479Z,88.74
2023-06-17T07:12:37.916Z,87.63
2023-06-17T07:15:06.648Z,88.92
2023-06-17T07:17:34.080Z,88.39
2023-06-17T07:20:04.185Z,88.92
2023-06-17T07:22:31.590Z,89.95
2023-06-17T07:24:58.801Z,90.02
2023-06-17T07:27:26.098Z,90.00
2023-06-17T07:29:53.431Z,87.25
2023-06-17T07:32:20.480Z,87.29
2023-06-17T07:34:50.049Z,87.20
2023-06-17T07:37:17.147Z,87.57
2023-06-17T07:39:47.538Z,87.79
2023-06-17T07:42:17.917Z,87.66
2023-06-17T07:44:47.724Z,88.14
2023-06-17T07:47:14.798Z,88.64
2023-06-17T07:49:41.840Z,88.41
2023-06-17T07:52:08.902Z,87.38
2023-06-17T07:54:36.950Z,87.79
2023-06-17T07:57:04.854Z,88.32
2023-06-17T07:59:32.331Z,86.75
2023-06-17T08:01:59.700Z,86.34
2023-06-17T08:04:26.941Z,86.08
2023-06-17T08:06:53.967Z,86.06
2023-06-17T08:09:21.154Z,84.83
2023-06-17T08:11:49.184Z,83.51
2023-06-17T08:14:17.533Z,80.83
2023-06-17T08:16:45.072Z,79.15
2023-06-17T08:19:13.094Z,80.61
2023-06-17T08:21:43.375Z,80.14
2023-06-17T08:24:19.600Z,79.96
2023-06-17T08:26:47.153Z,79.08
2023-06-17T08:29:15.125Z,77.97
2023-06-17T08:31:43.818Z,77.57
2023-06-17T08:34:12.281Z,77.99
2023-06-17T08:36:50.918Z,77.10
2023-06-17T08:39:20.306Z,76.26
2023-06-17T08:41:49.847Z,76.77
2023-06-17T08:44:17.584Z,76.46
2023-06-17T08:46:46.165Z,76.28
2023-06-17T08:49:14.409Z,77.04
2023-06-17T08:51:42.144Z,77.02
2023-06-17T08:54:10.831Z,76.45
2023-06-17T08:56:38.476Z,75.86
2023-06-17T08:59:06.046Z,76.50
2023-06-17T09:01:34.017Z,76.55
2023-06-17T09:04:03.135Z,75.56
2023-06-17T09:06:31.244Z,75.23
2023-06-17T09:08:59.131Z,76.20
2023-06-17T09:11:31.529Z,74.36
2023-06-17T09:27:31.524Z,75.36
2023-06-17T09:30:10.668Z,74.59
2023-06-17T09:32:44.166Z,73.66
2023-06-17T09:35:18.540Z,74.45
2023-06-17T09:40:32.656Z,73.61
2023-06-17T09:43:20.951Z,73.68
2023-06-17T09:45:56.384Z,72.47
2023-06-17T09:48:26.120Z,71.21
2023-06-17T09:50:57.683Z,71.42
2023-06-17T09:53:30.563Z,70.36
2023-06-17T09:56:00.014Z,70.33
2023-06-17T09:58:34.141Z,70.95
2023-06-17T10:01:07.162Z,70.81
2023-06-17T10:03:35.304Z,69.99
2023-06-17T10:06:10.023Z,69.04
2023-06-17T10:08:49.913Z,68.95
2023-06-17T10:11:21.459Z,67.38
2023-06-17T10:14:00.521Z,67.64
2023-06-17T10:16:32.116Z,68.84
2023-06-17T10:19:02.357Z,68.13
2023-06-17T10:21:30.729Z,67.87
2023-06-17T10:24:01.245Z,67.61
2023-06-17T10:26:30.087Z,68.09
2023-06-17T10:29:08.437Z,67.90
2023-06-17T10:31:39.352Z,68.24
2023-06-17T10:34:09.348Z,68.64
2023-06-17T10:36:37.228Z,68.86
2023-06-17T10:39:13.164Z,68.40
2023-06-17T10:41:40.158Z,68.45
2023-06-17T10:44:29.327Z,69.80
2023-06-17T10:46:57.685Z,69.18
2023-06-17T10:49:25.031Z,69.85
2023-06-17T10:51:58.850Z,69.96
2023-06-17T10:54:34.040Z,70.87
2023-06-17T10:57:03.041Z,70.53
2023-06-17T10:59:33.573Z,70.52
2023-06-17T11:02:08.424Z,70.79
2023-06-17T11:04:38.211Z,70.45
2023-06-17T11:07:06.127Z,67.32
2023-06-17T11:09:34.683Z,65.84
2023-06-17T11:12:03.603Z,66.91
2023-06-17T11:14:32.772Z,65.43
2023-06-17T11:16:59.933Z,65.26
2023-06-17T11:19:27.161Z,64.81
2023-06-17T11:22:08.517Z,65.17
2023-06-17T11:24:36.889Z,60.84
2023-06-17T11:27:07.089Z,60.07
2023-06-17T11:29:34.359Z,60.71
2023-06-17T11:32:03.190Z,58.62
2023-06-17T11:34:33.258Z,59.20
2023-06-17T11:37:03.222Z,60.61
2023-06-17T11:39:32.135Z,60.76
2023-06-17T11:42:04.023Z,59.84
2023-06-17T11:44:36.026Z,60.73
2023-06-17T11:47:08.285Z,60.87
2023-06-17T11:49:36.604Z,64.23
2023-06-17T11:52:12.289Z,65.19
2023-06-17T11:54:51.837Z,65.59
2023-06-17T11:57:23.852Z,65.22
2023-06-17T11:59:52.108Z,65.85
2023-06-17T12:02:20.265Z,66.08
2023-06-17T12:04:48.034Z,67.06
2023-06-17T12:07:15.668Z,68.22
2023-06-17T12:09:54.483Z,68.12
2023-06-17T12:12:37.024Z,67.77
2023-06-17T12:15:15.086Z,68.60
2023-06-17T12:17:44.186Z,67.13
2023-06-17T12:20:19.226Z,68.01
2023-06-17T12:22:47.985Z,67.56
2023-06-17T12:25:15.233Z,68.55
2023-06-17T12:27:44.070Z,70.02
2023-06-17T12:30:15.216Z,70.92
2023-06-17T12:32:44.151Z,71.45
2023-06-17T12:35:13.160Z,71.64
2023-06-17T12:37:42.484Z,72.62
2023-06-17T12:40:10.558Z,74.17
2023-06-17T12:42:38.036Z,74.52
2023-06-17T12:45:06.822Z,75.50
2023-06-17T12:47:34.109Z,74.37
2023-06-17T12:50:01.457Z,74.70
2023-06-17T12:52:31.373Z,75.12
2023-06-17T12:55:02.192Z,76.05
2023-06-17T12:57:32.962Z,75.89
2023-06-17T13:00:01.357Z,76.06
2023-06-17T13:05:55.016Z,76.96
2023-06-17T13:08:22.167Z,76.37
2023-06-17T13:10:49.480Z,77.62
2023-06-17T13:13:16.710Z,76.78
2023-06-17T13:15:44.076Z,77.41
2023-06-17T13:18:11.305Z,78.62
2023-06-17T13:20:38.355Z,78.45
2023-06-17T13:23:05.708Z,80.43
2023-06-17T13:25:32.897Z,82.74
2023-06-17T13:28:05.889Z,82.21
2023-06-17T13:30:33.266Z,81.95
2023-06-17T13:33:00.314Z,80.08
2023-06-17T13:35:27.330Z,78.67
2023-06-17T13:37:56.104Z,78.86
2023-06-17T13:40:23.952Z,79.10
2023-06-17T13:42:51.308Z,77.75
2023-06-17T13:45:18.637Z,78.00
2023-06-17T13:47:46.295Z,78.17
2023-06-17T13:50:13.453Z,76.87
2023-06-17T13:52:40.473Z,75.96
2023-06-17T13:55:08.266Z,74.71
2023-06-17T13:57:35.285Z,75.82
2023-06-17T14:00:02.420Z,74.61
2023-06-17T14:02:33.541Z,73.47
2023-06-17T14:05:02.067Z,75.17
2023-06-17T14:07:30.902Z,75.70
2023-06-17T14:09:58.285Z,74.06
2023-06-17T14:12:25.594Z,73.89
2023-06-17T14:14:53.637Z,73.45
2023-06-17T14:17:21.104Z,72.32
2023-06-17T14:19:48.436Z,72.48
2023-06-17T14:22:15.653Z,70.84
2023-06-17T14:24:43.022Z,69.08
2023-06-17T14:27:34.575Z,69.78
2023-06-17T14:30:03.476Z,69.54
2023-06-17T14:32:34.183Z,68.96
2023-06-17T14:35:01.612Z,69.07
2023-06-17T14:37:33.662Z,67.80
2023-06-17T14:40:00.880Z,68.34
2023-06-17T14:42:29.361Z,68.75
2023-06-17T14:44:56.460Z,68.65
2023-06-17T14:47:24.242Z,70.02
2023-06-17T14:49:51.329Z,70.55
2023-06-17T14:52:18.569Z,71.82
2023-06-17T14:54:45.890Z,70.91
2023-06-17T14:57:13.645Z,71.65
2023-06-17T14:59:41.156Z,71.18
2023-06-17T15:02:36.734Z,69.56
2023-06-17T15:05:03.827Z,69.56
2023-06-17T15:07:31.019Z,70.94
2023-06-17T15:09:58.024Z,71.03
2023-06-17T15:12:25.039Z,70.68
2023-06-17T15:14:54.672Z,70.03
2023-06-17T15:17:22.054Z,69.77
2023-06-17T15:19:49.128Z,69.92
2023-06-17T15:22:16.313Z,70.96
2023-06-17T15:24:43.369Z,72.37
2023-06-17T15:27:10.554Z,71.28
2023-06-17T15:29:37.642Z,71.08
2023-06-17T15:32:05.056Z,70.49
2023-06-17T15:34:32.060Z,69.68
2023-06-17T15:36:59.052Z,70.25
2023-06-17T15:39:28.955Z,69.36
2023-06-17T15:41:56.175Z,68.82
2023-06-17T15:44:23.318Z,69.22
2023-06-17T15:46:51.226Z,68.22
2023-06-17T15:49:18.972Z,67.42
2023-06-17T15:51:46.036Z,67.93
2023-06-17T15:54:14.359Z,67.87
2023-06-17T15:56:47.143Z,68.32
2023-06-17T15:59:14.520Z,69.55
2023-06-17T16:01:41.616Z,71.29
2023-06-17T16:04:34.310Z,72.00
2023-06-17T16:07:03.962Z,73.25
2023-06-17T16:09:35.273Z,72.89
2023-06-17T16:12:04.100Z,73.19
2023-06-17T16:14:36.922Z,74.08
2023-06-17T16:17:06.841Z,74.45
2023-06-17T16:19:34.329Z,75.17
2023-06-17T16:22:03.328Z,76.70
2023-06-17T16:24:31.719Z,75.87
2023-06-17T16:26:59.702Z,75.94
2023-06-17T16:29:26.826Z,74.62
2023-06-17T16:31:53.876Z,74.17
2023-06-17T16:34:21.075Z,74.43
2023-06-17T16:36:48.089Z,74.89
2023-06-17T16:39:15.170Z,75.53
2023-06-17T16:41:42.289Z,76.73
2023-06-17T16:44:09.874Z,76.34
2023-06-17T16:46:37.309Z,75.65
2023-06-17T16:49:04.546Z,75.56
2023-06-17T16:51:32.511Z,76.70
2023-06-17T16:54:01.901Z,77.17
2023-06-17T16:56:31.108Z,77.40
2023-06-17T16:58:58.471Z,79.03
2023-06-17T17:01:25.768Z,79.04
2023-06-17T17:03:52.901Z,79.44
2023-06-17T17:06:19.976Z,79.45
2023-06-17T17:08:51.027Z,78.25
2023-06-17T17:11:18.085Z,76.70
2023-06-17T17:13:49.259Z,77.61
2023-06-17T17:16:17.548Z,80.22
2023-06-17T17:18:44.690Z,80.46
2023-06-17T17:21:11.843Z,80.90
2023-06-17T17:23:41.688Z,82.26
2023-06-17T17:26:10.287Z,83.35
2023-06-17T17:28:37.465Z,83.17
2023-06-17T17:31:04.521Z,82.19
2023-06-17T17:33:33.927Z,82.38
2023-06-17T17:36:01.691Z,84.77
2023-06-17T17:38:28.752Z,87.65
2023-06-17T17:40:55.783Z,87.39
2023-06-17T17:43:22.814Z,87.90
2023-06-17T17:45:49.907Z,88.12
2023-06-17T17:48:17.354Z,88.35
2023-06-17T17:50:44.528Z,88.57
2023-06-17T17:53:11.938Z,89.39
2023-06-17T17:55:39.024Z,89.87
2023-06-17T17:58:06.066Z,89.21
2023-06-17T18:00:33.195Z,91.34
2023-06-17T18:03:00.545Z,92.31
2023-06-17T18:05:27.624Z,90.80
2023-06-17T18:07:54.724Z,90.73
2023-06-17T18:10:22.140Z,90.78
2023-06-17T18:12:49.504Z,91.22
2023-06-17T18:15:16.678Z,90.66
2023-06-17T18:17:43.716Z,91.07
2023-06-17T18:20:11.228Z,90.07
2023-06-17T18:22:38.792Z,89.10
2023-06-17T18:25:06.743Z,90.00
2023-06-17T18:27:36.272Z,90.95
2023-06-17T18:30:05.049Z,91.65
2023-06-17T18:32:36.858Z,91.46
2023-06-17T18:35:04.078Z,91.07
2023-06-17T18:37:33.112Z,90.79
2023-06-17T18:40:02.516Z,90.97
2023-06-17T18:42:33.733Z,91.67
2023-06-17T18:45:01.346Z,91.61
2023-06-17T18:47:32.235Z,91.52
2023-06-17T18:50:00.140Z,91.40
2023-06-17T18:52:27.562Z,92.30
2023-06-17T18:54:54.897Z,92.12
2023-06-17T18:57:23.488Z,91.92
2023-06-17T18:59:52.569Z,92.01
2023-06-17T19:02:21.409Z,90.94
2023-06-17T19:04:48.575Z,91.11
2023-06-17T19:07:15.741Z,91.30
2023-06-17T19:09:42.782Z,90.56
2023-06-17T19:12:10.464Z,89.60
2023-06-17T19:14:37.886Z,89.75
2023-06-17T19:17:05.497Z,88.81
2023-06-17T19:19:32.730Z,88.90
2023-06-17T19:21:59.866Z,88.58
2023-06-17T19:24:26.994Z,88.84
2023-06-17T19:26:54.128Z,88.19
2023-06-17T19:29:21.395Z,88.14
2023-06-17T19:31:48.601Z,87.97
2023-06-17T19:34:15.653Z,87.93
2023-06-17T19:36:42.739Z,87.29
2023-06-17T19:39:09.758Z,88.42
2023-06-17T19:41:37.174Z,86.96
2023-06-17T19:44:06.156Z,88.30
2023-06-17T19:46:33.725Z,88.10
2023-06-17T19:49:00.887Z,89.27
2023-06-17T19:51:28.615Z,89.64
2023-06-17T19:53:57.029Z,88.67
2023-06-17T19:56:24.867Z,88.96
2023-06-17T19:58:52.085Z,89.32
2023-06-17T20:01:19.979Z,89.77
2023-06-17T20:03:47.268Z,89.48
2023-06-17T20:06:14.892Z,89.71
2023-06-17T20:08:42.399Z,89.36
2023-06-17T20:11:09.573Z,89.18
2023-06-17T20:13:36.881Z,89.27
2023-06-17T20:16:04.763Z,89.30
2023-06-17T20:18:31.849Z,89.00
2023-06-17T20:20:58.901Z,88.76
2023-06-17T20:23:27.966Z,88.61
2023-06-17T20:25:55.506Z,88.39
2023-06-17T20:28:22.480Z,88.17
2023-06-17T20:30:49.564Z,88.75
2023-06-17T20:33:16.637Z,88.11
2023-06-17T20:35:43.840Z,88.00
2023-06-17T20:38:10.880Z,88.79
2023-06-17T20:40:38.259Z,88.63
2023-06-17T20:43:05.200Z,87.87
2023-06-17T20:45:32.484Z,85.17
2023-06-17T20:47:59.760Z,85.62
2023-06-17T20:50:27.956Z,85.76
2023-06-17T20:52:57.409Z,86.46
2023-06-17T20:55:29.999Z,88.97
2023-06-17T20:57:57.445Z,89.38
2023-06-17T21:00:24.614Z,90.38
2023-06-17T21:02:51.983Z,90.00
2023-06-17T21:05:19.283Z,89.41
2023-06-17T21:07:46.523Z,89.70
2023-06-17T21:10:14.319Z,90.26
2023-06-17T21:12:41.650Z,90.82
2023-06-17T21:15:09.321Z,90.75
2023-06-17T21:17:36.421Z,90.72
2023-06-17T21:20:03.954Z,92.27
2023-06-17T21:22:31.332Z,91.18
2023-06-17T21:24:58.403Z,91.25
2023-06-17T21:27:25.495Z,90.78
2023-06-17T21:29:52.960Z,89.61
2023-06-17T21:32:20.100Z,90.66
2023-06-17T21:34:47.672Z,90.40
2023-06-17T21:37:14.870Z,89.11
2023-06-17T21:39:42.324Z,87.57
2023-06-17T21:42:09.443Z,87.24
2023-06-17T21:44:36.730Z,86.79
2023-06-17T21:47:04.171Z,87.12
2023-06-17T21:49:31.398Z,86.23
2023-06-17T21:51:58.472Z,84.83
2023-06-17T21:54:25.549Z,83.45
2023-06-17T21:56:52.543Z,81.11
2023-06-17T21:59:19.538Z,81.41
2023-06-17T22:01:47.953Z,81.11
2023-06-17T22:04:14.991Z,82.03
2023-06-17T22:06:42.128Z,81.42
2023-06-17T22:09:09.181Z,81.55
2023-06-17T22:11:36.213Z,81.14
2023-06-17T22:14:03.358Z,80.34
2023-06-17T22:16:30.565Z,80.52
2023-06-17T22:18:57.692Z,81.53
2023-06-17T22:21:24.760Z,81.28
2023-06-17T22:23:51.795Z,81.89
2023-06-17T22:26:18.947Z,81.94
2023-06-17T22:28:46.079Z,82.08
2023-06-17T22:31:13.117Z,81.98
2023-06-17T22:33:40.157Z,81.49
2023-06-17T22:36:07.420Z,80.97
2023-06-17T22:38:34.410Z,81.62
2023-06-17T22:41:01.629Z,81.46
2023-06-17T22:43:29.163Z,81.25
2023-06-17T22:45:56.163Z,81.77
2023-06-17T22:48:23.172Z,81.33
2023-06-17T22:50:50.577Z,81.24
2023-06-17T22:53:17.844Z,80.69
2023-06-17T22:55:44.846Z,80.78
2023-06-17T22:58:11.909Z,80.42
2023-06-17T23:00:41.560Z,79.93
2023-06-17T23:03:09.222Z,80.46
2023-06-17T23:05:36.326Z,80.63
2023-06-17T23:08:04.634Z,81.10
2023-06-17T23:10:31.768Z,80.42
2023-06-17T23:12:58.802Z,82.03
2023-06-17T23:15:25.827Z,84.98
2023-06-17T23:17:52.939Z,84.36
2023-06-17T23:20:20.235Z,86.20
2023-06-17T23:22:47.492Z,85.19
2023-06-17T23:25:15.630Z,87.18
2023-06-17T23:27:44.542Z,86.54
2023-06-17T23:30:14.809Z,87.85
2023-06-17T23:32:42.622Z,88.32
2023-06-17T23:35:10.283Z,87.97
2023-06-17T23:37:37.535Z,86.81
2023-06-17T23:40:05.182Z,87.52
2023-06-17T23:42:32.725Z,89.15
2023-06-17T23:45:00.598Z,90.00
2023-06-17T23:47:27.793Z,91.27
2023-06-17T23:49:55.064Z,92.95
2023-06-17T23:52:22.174Z,92.55
2023-06-17T23:54:49.249Z,92.26
